Flay, North Carolina
Current Conditions -  °F | °C
As of 5:15 PM on Friday 24 Oct 2014 (Local Time) from KIPJ Reporting Station
Clear Clear  
Wind Chill: 65°   Ceiling: Unl
Heat Index: 65°   Visibility: 10mi
Dew Point: 41°   Wind: 0mph
Humidity: 41%   Direction: NA
Pressure: 30"   Gusts: NA
Location:  35.3791°N, 81.3649°W
Report Text: KIPJ 242115Z AUTO 00000KT 10SM CLR 19/05 A3000 RMK AO2 T01860052
Loading
Personal Weather Stations






























Interactive Weather Map
Tropical Storm Tracking
New forecast layout! Learn more

10-Day Weather Forecast

Advertisements
Track Severe Weather on mobile